Lomond, Canada
Current Conditions -  °F | °C
As of 3:00 PM on Tuesday 27 Jan 2015 (Local Time) from CYDF Reporting Station
Light Snow Light Snow  
Wind Chill: -7°   Ceiling: 3800
Heat Index: 10°   Visibility: 12mi
Dew Point:   Wind: 17mph
Humidity: 67%   Direction: 50°NE
Pressure: 30.31"   Gusts: 25mph
Location:  49.45°N, 57.93°W
Report Text: CYDF 271800Z 05015G22KT 12SM -SN BKN038 OVC050 M12/M17 A3031 RMK SC5SC3 SLP266
Loading
Personal Weather Stations






























Interactive Weather Map New forecast layout! Learn more

10-Day Weather Forecast

Advertisements
Track Severe Weather on mobile